Airport View

Enter ICAO identifier to see the current METAR for that AWOS.

KFNL for example

KHVR 290953Z AUTO 09004KT 10SM CLR 18/08 A3015

29 Jul 2014 10:41

Frequency: 135.225

Phone: 406-265-6638

Other Area AWOS: KS71 - CWOE - K79S - CWEH

TAF KHVR 290535Z 2906/3006 10010KT P6SM FEW120